sensor_id;sensor_type;location;lat;lon;timestamp;temperature;humidity
54272;DHT22;40184;53.362;5.216;2022-10-16T00:01:23;15.20;99.90
54272;DHT22;40184;53.362;5.216;2022-10-16T00:03:49;15.30;99.90
54272;DHT22;40184;53.362;5.216;2022-10-16T00:06:17;15.20;99.90
54272;DHT22;40184;53.362;5.216;2022-10-16T00:08:43;15.20;99.90
54272;DHT22;40184;53.362;5.216;2022-10-16T00:11:16;15.10;99.90
54272;DHT22;40184;53.362;5.216;2022-10-16T00:13:44;15.10;99.90
54272;DHT22;40184;53.362;5.216;2022-10-16T00:16:11;15.10;99.90
54272;DHT22;40184;53.362;5.216;2022-10-16T00:18:38;15.10;99.90
54272;DHT22;40184;53.362;5.216;2022-10-16T00:21:05;15.10;99.90
54272;DHT22;40184;53.362;5.216;2022-10-16T00:23:31;15.10;99.90
54272;DHT22;40184;53.362;5.216;2022-10-16T00:26:00;15.10;99.90
54272;DHT22;40184;53.362;5.216;2022-10-16T00:28:26;15.20;99.90
54272;DHT22;40184;53.362;5.216;2022-10-16T00:30:52;15.10;99.90
54272;DHT22;40184;53.362;5.216;2022-10-16T00:33:18;15.10;99.90
54272;DHT22;40184;53.362;5.216;2022-10-16T00:35:45;15.10;99.90
54272;DHT22;40184;53.362;5.216;2022-10-16T00:38:11;15.00;99.90
54272;DHT22;40184;53.362;5.216;2022-10-16T00:40:37;15.00;99.90
54272;DHT22;40184;53.362;5.216;2022-10-16T00:43:02;15.20;99.90
54272;DHT22;40184;53.362;5.216;2022-10-16T00:45:30;15.10;99.90
54272;DHT22;40184;53.362;5.216;2022-10-16T00:47:56;15.10;99.90
54272;DHT22;40184;53.362;5.216;2022-10-16T00:50:30;15.30;99.90
54272;DHT22;40184;53.362;5.216;2022-10-16T00:52:57;15.10;99.90
54272;DHT22;40184;53.362;5.216;2022-10-16T00:55:24;15.10;99.90
54272;DHT22;40184;53.362;5.216;2022-10-16T00:57:51;15.10;99.90
54272;DHT22;40184;53.362;5.216;2022-10-16T01:00:23;15.10;99.90
54272;DHT22;40184;53.362;5.216;2022-10-16T01:02:57;15.20;99.90
54272;DHT22;40184;53.362;5.216;2022-10-16T01:05:45;15.00;99.90
54272;DHT22;40184;53.362;5.216;2022-10-16T01:08:18;15.10;99.90
54272;DHT22;40184;53.362;5.216;2022-10-16T01:10:57;14.90;99.90
54272;DHT22;40184;53.362;5.216;2022-10-16T01:18:34;14.80;99.90
54272;DHT22;40184;53.362;5.216;2022-10-16T01:21:16;14.90;99.90
54272;DHT22;40184;53.362;5.216;2022-10-16T01:26:46;14.90;99.90
54272;DHT22;40184;53.362;5.216;2022-10-16T01:32:15;15.00;99.90
54272;DHT22;40184;53.362;5.216;2022-10-16T01:34:49;14.90;99.90
54272;DHT22;40184;53.362;5.216;2022-10-16T01:37:59;15.10;99.90
54272;DHT22;40184;53.362;5.216;2022-10-16T01:40:17;15.00;99.90
54272;DHT22;40184;53.362;5.216;2022-10-16T01:42:49;14.90;99.90
54272;DHT22;40184;53.362;5.216;2022-10-16T01:45:18;14.80;99.90
54272;DHT22;40184;53.362;5.216;2022-10-16T01:47:45;14.70;99.90
54272;DHT22;40184;53.362;5.216;2022-10-16T01:50:12;14.50;99.90
54272;DHT22;40184;53.362;5.216;2022-10-16T01:52:43;14.50;99.90
54272;DHT22;40184;53.362;5.216;2022-10-16T01:55:12;14.70;99.90
54272;DHT22;40184;53.362;5.216;2022-10-16T01:57:43;14.50;99.90
54272;DHT22;40184;53.362;5.216;2022-10-16T02:00:12;14.60;99.90
54272;DHT22;40184;53.362;5.216;2022-10-16T02:02:41;14.80;99.90
54272;DHT22;40184;53.362;5.216;2022-10-16T02:05:22;14.70;99.90
54272;DHT22;40184;53.362;5.216;2022-10-16T02:07:49;14.90;99.90
54272;DHT22;40184;53.362;5.216;2022-10-16T02:10:15;14.90;99.90
54272;DHT22;40184;53.362;5.216;2022-10-16T02:12:45;15.00;99.90
54272;DHT22;40184;53.362;5.216;2022-10-16T02:15:13;15.10;99.90
54272;DHT22;40184;53.362;5.216;2022-10-16T02:17:39;15.00;99.90
54272;DHT22;40184;53.362;5.216;2022-10-16T02:20:05;15.00;99.90
54272;DHT22;40184;53.362;5.216;2022-10-16T02:22:37;14.90;99.90
54272;DHT22;40184;53.362;5.216;2022-10-16T02:25:05;14.80;99.90
54272;DHT22;40184;53.362;5.216;2022-10-16T02:27:48;14.70;99.90
54272;DHT22;40184;53.362;5.216;2022-10-16T02:30:23;14.80;99.90
54272;DHT22;40184;53.362;5.216;2022-10-16T02:32:51;14.60;99.90
54272;DHT22;40184;53.362;5.216;2022-10-16T02:35:19;14.80;99.90
54272;DHT22;40184;53.362;5.216;2022-10-16T02:37:46;14.80;99.90
54272;DHT22;40184;53.362;5.216;2022-10-16T02:40:13;14.80;99.90
54272;DHT22;40184;53.362;5.216;2022-10-16T02:42:40;14.60;99.90
54272;DHT22;40184;53.362;5.216;2022-10-16T02:45:07;14.60;99.90
54272;DHT22;40184;53.362;5.216;2022-10-16T02:47:33;14.50;99.90
54272;DHT22;40184;53.362;5.216;2022-10-16T02:49:59;14.60;99.90
54272;DHT22;40184;53.362;5.216;2022-10-16T02:52:25;14.40;99.90
54272;DHT22;40184;53.362;5.216;2022-10-16T02:54:50;14.40;99.90
54272;DHT22;40184;53.362;5.216;2022-10-16T02:57:17;14.50;99.90
54272;DHT22;40184;53.362;5.216;2022-10-16T02:59:43;14.60;99.90
54272;DHT22;40184;53.362;5.216;2022-10-16T03:02:09;14.40;99.90
54272;DHT22;40184;53.362;5.216;2022-10-16T03:04:34;14.30;99.90
54272;DHT22;40184;53.362;5.216;2022-10-16T03:07:00;14.20;99.90
54272;DHT22;40184;53.362;5.216;2022-10-16T03:09:26;14.30;99.90
54272;DHT22;40184;53.362;5.216;2022-10-16T03:11:51;14.20;99.90
54272;DHT22;40184;53.362;5.216;2022-10-16T03:14:17;14.20;99.90
54272;DHT22;40184;53.362;5.216;2022-10-16T03:16:43;14.40;99.90
54272;DHT22;40184;53.362;5.216;2022-10-16T03:19:08;14.40;99.90
54272;DHT22;40184;53.362;5.216;2022-10-16T03:21:34;14.30;99.90
54272;DHT22;40184;53.362;5.216;2022-10-16T03:24:00;14.30;99.90
54272;DHT22;40184;53.362;5.216;2022-10-16T03:26:25;14.40;99.90
54272;DHT22;40184;53.362;5.216;2022-10-16T03:28:51;14.50;99.90
54272;DHT22;40184;53.362;5.216;2022-10-16T03:31:16;14.60;99.90
54272;DHT22;40184;53.362;5.216;2022-10-16T03:33:42;14.40;99.90
54272;DHT22;40184;53.362;5.216;2022-10-16T03:36:08;14.40;99.90
54272;DHT22;40184;53.362;5.216;2022-10-16T03:38:33;14.20;99.90
54272;DHT22;40184;53.362;5.216;2022-10-16T03:40:59;14.20;99.90
54272;DHT22;40184;53.362;5.216;2022-10-16T03:43:24;14.20;99.90
54272;DHT22;40184;53.362;5.216;2022-10-16T03:45:51;14.10;99.90
54272;DHT22;40184;53.362;5.216;2022-10-16T03:48:17;14.00;99.90
54272;DHT22;40184;53.362;5.216;2022-10-16T03:50:43;13.90;99.90
54272;DHT22;40184;53.362;5.216;2022-10-16T03:53:09;13.90;99.90
54272;DHT22;40184;53.362;5.216;2022-10-16T03:55:35;13.90;99.90
54272;DHT22;40184;53.362;5.216;2022-10-16T03:58:00;14.00;99.90
54272;DHT22;40184;53.362;5.216;2022-10-16T04:00:26;14.00;99.90
54272;DHT22;40184;53.362;5.216;2022-10-16T04:02:52;14.20;99.90
54272;DHT22;40184;53.362;5.216;2022-10-16T04:05:18;14.20;99.90
54272;DHT22;40184;53.362;5.216;2022-10-16T04:07:44;14.30;99.90
54272;DHT22;40184;53.362;5.216;2022-10-16T04:10:09;14.10;99.90
54272;DHT22;40184;53.362;5.216;2022-10-16T04:12:35;14.30;99.90
54272;DHT22;40184;53.362;5.216;2022-10-16T04:15:01;14.30;99.90
54272;DHT22;40184;53.362;5.216;2022-10-16T04:17:26;14.30;99.90
54272;DHT22;40184;53.362;5.216;2022-10-16T04:19:52;14.30;99.90
54272;DHT22;40184;53.362;5.216;2022-10-16T04:22:18;14.30;99.90
54272;DHT22;40184;53.362;5.216;2022-10-16T04:24:43;14.20;99.90
54272;DHT22;40184;53.362;5.216;2022-10-16T04:27:09;14.40;99.90
54272;DHT22;40184;53.362;5.216;2022-10-16T04:29:34;14.40;99.90
54272;DHT22;40184;53.362;5.216;2022-10-16T04:32:00;14.30;99.90
54272;DHT22;40184;53.362;5.216;2022-10-16T04:34:26;14.30;99.90
54272;DHT22;40184;53.362;5.216;2022-10-16T04:36:51;14.30;99.90
54272;DHT22;40184;53.362;5.216;2022-10-16T04:39:17;14.20;99.90
54272;DHT22;40184;53.362;5.216;2022-10-16T04:41:43;14.20;99.90
54272;DHT22;40184;53.362;5.216;2022-10-16T04:44:09;14.30;99.90
54272;DHT22;40184;53.362;5.216;2022-10-16T04:46:34;14.20;99.90
54272;DHT22;40184;53.362;5.216;2022-10-16T04:49:00;14.10;99.90
54272;DHT22;40184;53.362;5.216;2022-10-16T04:51:26;14.10;99.90
54272;DHT22;40184;53.362;5.216;2022-10-16T04:53:53;14.20;99.90
54272;DHT22;40184;53.362;5.216;2022-10-16T04:56:20;14.20;99.90
54272;DHT22;40184;53.362;5.216;2022-10-16T04:58:46;14.40;99.90
54272;DHT22;40184;53.362;5.216;2022-10-16T05:01:12;14.60;99.90
54272;DHT22;40184;53.362;5.216;2022-10-16T05:03:38;14.60;99.90
54272;DHT22;40184;53.362;5.216;2022-10-16T05:06:06;14.70;99.90
54272;DHT22;40184;53.362;5.216;2022-10-16T05:08:32;14.80;99.90
54272;DHT22;40184;53.362;5.216;2022-10-16T05:10:57;14.70;99.90
54272;DHT22;40184;53.362;5.216;2022-10-16T05:13:23;14.60;99.90
54272;DHT22;40184;53.362;5.216;2022-10-16T05:15:49;14.70;99.90
54272;DHT22;40184;53.362;5.216;2022-10-16T05:18:15;14.70;99.90
54272;DHT22;40184;53.362;5.216;2022-10-16T05:20:42;14.40;99.90
54272;DHT22;40184;53.362;5.216;2022-10-16T05:23:08;14.40;99.90
54272;DHT22;40184;53.362;5.216;2022-10-16T05:25:36;14.30;99.90
54272;DHT22;40184;53.362;5.216;2022-10-16T05:28:02;14.40;99.90
54272;DHT22;40184;53.362;5.216;2022-10-16T05:30:28;14.20;99.90
54272;DHT22;40184;53.362;5.216;2022-10-16T05:32:53;14.10;99.90
54272;DHT22;40184;53.362;5.216;2022-10-16T05:35:19;13.80;99.90
54272;DHT22;40184;53.362;5.216;2022-10-16T05:37:46;13.80;99.90
54272;DHT22;40184;53.362;5.216;2022-10-16T05:40:13;13.90;99.90
54272;DHT22;40184;53.362;5.216;2022-10-16T05:42:39;14.00;99.90
54272;DHT22;40184;53.362;5.216;2022-10-16T05:45:07;14.10;99.90
54272;DHT22;40184;53.362;5.216;2022-10-16T05:47:33;14.20;99.90
54272;DHT22;40184;53.362;5.216;2022-10-16T05:49:59;14.20;99.90
54272;DHT22;40184;53.362;5.216;2022-10-16T05:52:26;14.20;99.90
54272;DHT22;40184;53.362;5.216;2022-10-16T05:54:51;14.30;99.90
54272;DHT22;40184;53.362;5.216;2022-10-16T05:57:17;14.20;99.90
54272;DHT22;40184;53.362;5.216;2022-10-16T05:59:43;14.30;99.90
54272;DHT22;40184;53.362;5.216;2022-10-16T06:02:14;14.30;99.90
54272;DHT22;40184;53.362;5.216;2022-10-16T06:04:40;14.30;99.90
54272;DHT22;40184;53.362;5.216;2022-10-16T06:07:06;14.20;99.90
54272;DHT22;40184;53.362;5.216;2022-10-16T06:09:32;14.30;99.90
54272;DHT22;40184;53.362;5.216;2022-10-16T06:11:57;14.30;99.90
54272;DHT22;40184;53.362;5.216;2022-10-16T06:14:23;14.30;99.90
54272;DHT22;40184;53.362;5.216;2022-10-16T06:16:49;14.30;99.90
54272;DHT22;40184;53.362;5.216;2022-10-16T06:19:15;14.30;99.90
54272;DHT22;40184;53.362;5.216;2022-10-16T06:21:41;14.40;99.90
54272;DHT22;40184;53.362;5.216;2022-10-16T06:24:08;14.30;99.90
54272;DHT22;40184;53.362;5.216;2022-10-16T06:26:33;14.30;99.90
54272;DHT22;40184;53.362;5.216;2022-10-16T06:28:59;14.40;99.90
54272;DHT22;40184;53.362;5.216;2022-10-16T06:31:26;14.30;99.90
54272;DHT22;40184;53.362;5.216;2022-10-16T06:33:55;14.30;99.90
54272;DHT22;40184;53.362;5.216;2022-10-16T06:36:22;14.30;99.90
54272;DHT22;40184;53.362;5.216;2022-10-16T06:38:48;14.40;99.90
54272;DHT22;40184;53.362;5.216;2022-10-16T06:41:15;14.30;99.90
54272;DHT22;40184;53.362;5.216;2022-10-16T06:43:41;14.40;99.90
54272;DHT22;40184;53.362;5.216;2022-10-16T06:46:09;14.50;99.90
54272;DHT22;40184;53.362;5.216;2022-10-16T06:48:35;14.60;99.90
54272;DHT22;40184;53.362;5.216;2022-10-16T06:51:07;14.40;99.90
54272;DHT22;40184;53.362;5.216;2022-10-16T06:53:35;14.50;99.90
54272;DHT22;40184;53.362;5.216;2022-10-16T06:56:31;14.50;99.90
54272;DHT22;40184;53.362;5.216;2022-10-16T06:58:56;14.50;99.90
54272;DHT22;40184;53.362;5.216;2022-10-16T07:01:23;14.50;99.90
54272;DHT22;40184;53.362;5.216;2022-10-16T07:03:49;14.50;99.90
54272;DHT22;40184;53.362;5.216;2022-10-16T07:06:18;14.50;99.90
54272;DHT22;40184;53.362;5.216;2022-10-16T07:08:45;14.60;99.90
54272;DHT22;40184;53.362;5.216;2022-10-16T07:11:15;14.60;99.90
54272;DHT22;40184;53.362;5.216;2022-10-16T07:13:44;14.60;99.90
54272;DHT22;40184;53.362;5.216;2022-10-16T07:16:18;14.70;99.90
54272;DHT22;40184;53.362;5.216;2022-10-16T07:18:44;14.60;99.90
54272;DHT22;40184;53.362;5.216;2022-10-16T07:21:19;14.70;99.90
54272;DHT22;40184;53.362;5.216;2022-10-16T07:23:50;14.70;99.90
54272;DHT22;40184;53.362;5.216;2022-10-16T07:26:15;14.70;99.90
54272;DHT22;40184;53.362;5.216;2022-10-16T07:28:42;14.80;99.90
54272;DHT22;40184;53.362;5.216;2022-10-16T07:31:13;14.80;99.90
54272;DHT22;40184;53.362;5.216;2022-10-16T07:33:40;14.80;99.90
54272;DHT22;40184;53.362;5.216;2022-10-16T07:36:07;14.90;99.90
54272;DHT22;40184;53.362;5.216;2022-10-16T07:38:33;14.90;99.90
54272;DHT22;40184;53.362;5.216;2022-10-16T07:41:03;14.90;99.90
54272;DHT22;40184;53.362;5.216;2022-10-16T07:43:29;15.00;99.90
54272;DHT22;40184;53.362;5.216;2022-10-16T07:45:55;15.10;99.90
54272;DHT22;40184;53.362;5.216;2022-10-16T07:48:22;15.10;99.90
54272;DHT22;40184;53.362;5.216;2022-10-16T07:50:48;15.20;99.90
54272;DHT22;40184;53.362;5.216;2022-10-16T07:53:14;15.30;99.90
54272;DHT22;40184;53.362;5.216;2022-10-16T07:55:40;15.30;99.90
54272;DHT22;40184;53.362;5.216;2022-10-16T07:58:06;15.30;99.90
54272;DHT22;40184;53.362;5.216;2022-10-16T08:00:32;15.40;99.90
54272;DHT22;40184;53.362;5.216;2022-10-16T08:02:58;15.20;99.90
54272;DHT22;40184;53.362;5.216;2022-10-16T08:05:31;15.20;99.90
54272;DHT22;40184;53.362;5.216;2022-10-16T08:07:57;15.20;99.90
54272;DHT22;40184;53.362;5.216;2022-10-16T08:10:25;15.30;99.90
54272;DHT22;40184;53.362;5.216;2022-10-16T08:12:52;15.30;99.90
54272;DHT22;40184;53.362;5.216;2022-10-16T08:15:19;15.30;99.90
54272;DHT22;40184;53.362;5.216;2022-10-16T08:17:53;15.30;99.90
54272;DHT22;40184;53.362;5.216;2022-10-16T08:20:19;15.40;99.90
54272;DHT22;40184;53.362;5.216;2022-10-16T08:22:44;15.40;99.90
54272;DHT22;40184;53.362;5.216;2022-10-16T08:25:10;15.50;99.90
54272;DHT22;40184;53.362;5.216;2022-10-16T08:27:35;15.50;99.90
54272;DHT22;40184;53.362;5.216;2022-10-16T08:30:01;15.50;99.90
54272;DHT22;40184;53.362;5.216;2022-10-16T08:32:27;15.60;99.90
54272;DHT22;40184;53.362;5.216;2022-10-16T08:34:52;15.60;99.90
54272;DHT22;40184;53.362;5.216;2022-10-16T08:37:18;15.60;99.90
54272;DHT22;40184;53.362;5.216;2022-10-16T08:39:43;15.80;99.90
54272;DHT22;40184;53.362;5.216;2022-10-16T08:42:39;15.80;99.90
54272;DHT22;40184;53.362;5.216;2022-10-16T08:45:26;15.80;99.90
54272;DHT22;40184;53.362;5.216;2022-10-16T08:50:32;15.90;99.90
54272;DHT22;40184;53.362;5.216;2022-10-16T08:52:58;16.00;99.90
54272;DHT22;40184;53.362;5.216;2022-10-16T08:55:46;16.10;99.90
54272;DHT22;40184;53.362;5.216;2022-10-16T08:58:16;16.20;99.90
54272;DHT22;40184;53.362;5.216;2022-10-16T09:00:43;16.10;99.90
54272;DHT22;40184;53.362;5.216;2022-10-16T09:08:47;16.10;99.90
54272;DHT22;40184;53.362;5.216;2022-10-16T09:22:36;16.20;99.90
54272;DHT22;40184;53.362;5.216;2022-10-16T09:25:14;16.30;99.90
54272;DHT22;40184;53.362;5.216;2022-10-16T09:27:40;16.40;99.90
54272;DHT22;40184;53.362;5.216;2022-10-16T09:30:12;16.40;99.90
54272;DHT22;40184;53.362;5.216;2022-10-16T09:32:39;16.50;99.90
54272;DHT22;40184;53.362;5.216;2022-10-16T09:35:15;16.50;99.90
54272;DHT22;40184;53.362;5.216;2022-10-16T09:37:44;16.50;99.90
54272;DHT22;40184;53.362;5.216;2022-10-16T09:43:02;16.70;99.90
54272;DHT22;40184;53.362;5.216;2022-10-16T09:45:28;16.70;99.90
54272;DHT22;40184;53.362;5.216;2022-10-16T09:47:54;16.70;99.90
54272;DHT22;40184;53.362;5.216;2022-10-16T09:50:25;16.70;99.90
54272;DHT22;40184;53.362;5.216;2022-10-16T09:53:03;16.90;99.90
54272;DHT22;40184;53.362;5.216;2022-10-16T09:55:29;16.80;99.90
54272;DHT22;40184;53.362;5.216;2022-10-16T09:57:55;16.90;99.90
54272;DHT22;40184;53.362;5.216;2022-10-16T10:00:22;17.00;99.90
54272;DHT22;40184;53.362;5.216;2022-10-16T10:02:48;17.10;99.90
54272;DHT22;40184;53.362;5.216;2022-10-16T10:05:27;17.10;99.90
54272;DHT22;40184;53.362;5.216;2022-10-16T10:07:58;17.10;99.90
54272;DHT22;40184;53.362;5.216;2022-10-16T10:10:27;16.90;99.90
54272;DHT22;40184;53.362;5.216;2022-10-16T10:12:54;16.90;99.90
54272;DHT22;40184;53.362;5.216;2022-10-16T10:15:21;17.00;99.90
54272;DHT22;40184;53.362;5.216;2022-10-16T10:17:50;17.00;99.90
54272;DHT22;40184;53.362;5.216;2022-10-16T10:20:30;17.00;99.90
54272;DHT22;40184;53.362;5.216;2022-10-16T10:22:58;17.10;99.90
54272;DHT22;40184;53.362;5.216;2022-10-16T10:25:45;17.10;99.90
54272;DHT22;40184;53.362;5.216;2022-10-16T10:31:20;17.30;99.90
54272;DHT22;40184;53.362;5.216;2022-10-16T10:37:08;17.40;99.90
54272;DHT22;40184;53.362;5.216;2022-10-16T10:42:38;17.50;99.90
54272;DHT22;40184;53.362;5.216;2022-10-16T10:45:26;17.60;99.90
54272;DHT22;40184;53.362;5.216;2022-10-16T10:51:23;17.80;99.90
54272;DHT22;40184;53.362;5.216;2022-10-16T10:56:49;18.10;99.90
54272;DHT22;40184;53.362;5.216;2022-10-16T10:59:37;18.20;99.90
54272;DHT22;40184;53.362;5.216;2022-10-16T11:08:29;19.30;99.90
54272;DHT22;40184;53.362;5.216;2022-10-16T11:11:03;19.10;99.90
54272;DHT22;40184;53.362;5.216;2022-10-16T11:13:38;19.20;99.90
54272;DHT22;40184;53.362;5.216;2022-10-16T11:16:21;19.30;99.90
54272;DHT22;40184;53.362;5.216;2022-10-16T11:21:49;19.50;99.90
54272;DHT22;40184;53.362;5.216;2022-10-16T11:24:42;19.80;99.90
54272;DHT22;40184;53.362;5.216;2022-10-16T11:27:15;20.40;99.90
54272;DHT22;40184;53.362;5.216;2022-10-16T11:29:58;20.50;99.90
54272;DHT22;40184;53.362;5.216;2022-10-16T11:32:35;20.30;98.60
54272;DHT22;40184;53.362;5.216;2022-10-16T11:35:14;20.40;98.90
54272;DHT22;40184;53.362;5.216;2022-10-16T11:37:44;20.80;98.60
54272;DHT22;40184;53.362;5.216;2022-10-16T11:40:28;20.50;98.70
54272;DHT22;40184;53.362;5.216;2022-10-16T11:42:59;20.70;99.00
54272;DHT22;40184;53.362;5.216;2022-10-16T11:45:39;21.00;98.50
54272;DHT22;40184;53.362;5.216;2022-10-16T11:48:18;21.00;98.70
54272;DHT22;40184;53.362;5.216;2022-10-16T11:50:57;21.30;98.20
54272;DHT22;40184;53.362;5.216;2022-10-16T11:53:38;21.20;98.30
54272;DHT22;40184;53.362;5.216;2022-10-16T11:56:05;21.50;98.10
54272;DHT22;40184;53.362;5.216;2022-10-16T11:58:55;21.00;97.40
54272;DHT22;40184;53.362;5.216;2022-10-16T12:09:03;21.20;97.00
54272;DHT22;40184;53.362;5.216;2022-10-16T12:19:16;22.00;96.20
54272;DHT22;40184;53.362;5.216;2022-10-16T12:21:43;21.80;96.00
54272;DHT22;40184;53.362;5.216;2022-10-16T12:26:59;21.40;95.20
54272;DHT22;40184;53.362;5.216;2022-10-16T12:32:00;21.70;95.40
54272;DHT22;40184;53.362;5.216;2022-10-16T12:39:53;22.20;95.60
54272;DHT22;40184;53.362;5.216;2022-10-16T12:44:51;21.90;95.00
54272;DHT22;40184;53.362;5.216;2022-10-16T12:49:52;20.60;96.60
54272;DHT22;40184;53.362;5.216;2022-10-16T12:55:00;19.00;98.30
54272;DHT22;40184;53.362;5.216;2022-10-16T12:57:52;18.50;98.60
54272;DHT22;40184;53.362;5.216;2022-10-16T13:06:13;17.90;99.90
54272;DHT22;40184;53.362;5.216;2022-10-16T13:17:00;17.30;99.90
54272;DHT22;40184;53.362;5.216;2022-10-16T13:22:17;17.20;99.90
54272;DHT22;40184;53.362;5.216;2022-10-16T13:30:16;17.20;99.90
54272;DHT22;40184;53.362;5.216;2022-10-16T13:32:48;17.00;99.90
54272;DHT22;40184;53.362;5.216;2022-10-16T13:35:26;17.00;99.90
54272;DHT22;40184;53.362;5.216;2022-10-16T13:38:13;17.00;99.90
54272;DHT22;40184;53.362;5.216;2022-10-16T13:40:49;17.00;99.90
54272;DHT22;40184;53.362;5.216;2022-10-16T13:43:17;17.00;99.90
54272;DHT22;40184;53.362;5.216;2022-10-16T13:46:03;16.90;99.90
54272;DHT22;40184;53.362;5.216;2022-10-16T13:48:30;16.90;99.90
54272;DHT22;40184;53.362;5.216;2022-10-16T13:51:19;16.80;99.90
54272;DHT22;40184;53.362;5.216;2022-10-16T13:53:45;16.70;99.90
54272;DHT22;40184;53.362;5.216;2022-10-16T13:56:16;16.70;99.90
54272;DHT22;40184;53.362;5.216;2022-10-16T13:58:43;16.60;99.90
54272;DHT22;40184;53.362;5.216;2022-10-16T14:01:23;16.60;99.90
54272;DHT22;40184;53.362;5.216;2022-10-16T14:03:50;16.60;99.90
54272;DHT22;40184;53.362;5.216;2022-10-16T14:06:19;16.50;99.90
54272;DHT22;40184;53.362;5.216;2022-10-16T14:09:18;16.50;99.90
54272;DHT22;40184;53.362;5.216;2022-10-16T14:11:49;16.50;99.90
54272;DHT22;40184;53.362;5.216;2022-10-16T14:14:17;16.40;99.90
54272;DHT22;40184;53.362;5.216;2022-10-16T14:16:43;16.40;99.90
54272;DHT22;40184;53.362;5.216;2022-10-16T14:19:21;16.40;99.90
54272;DHT22;40184;53.362;5.216;2022-10-16T14:21:51;16.30;99.90
54272;DHT22;40184;53.362;5.216;2022-10-16T14:24:32;16.30;99.90
54272;DHT22;40184;53.362;5.216;2022-10-16T14:26:59;16.20;99.90
54272;DHT22;40184;53.362;5.216;2022-10-16T14:29:26;16.20;99.90
54272;DHT22;40184;53.362;5.216;2022-10-16T14:31:56;16.20;99.90
54272;DHT22;40184;53.362;5.216;2022-10-16T14:34:40;16.10;99.90
54272;DHT22;40184;53.362;5.216;2022-10-16T14:37:22;16.10;99.90
54272;DHT22;40184;53.362;5.216;2022-10-16T14:39:49;16.10;99.90
54272;DHT22;40184;53.362;5.216;2022-10-16T14:42:16;16.10;99.90
54272;DHT22;40184;53.362;5.216;2022-10-16T14:44:44;16.10;99.90
54272;DHT22;40184;53.362;5.216;2022-10-16T14:47:13;16.10;99.90
54272;DHT22;40184;53.362;5.216;2022-10-16T14:49:41;16.00;99.90
54272;DHT22;40184;53.362;5.216;2022-10-16T14:52:11;16.00;99.90
54272;DHT22;40184;53.362;5.216;2022-10-16T14:54:37;16.00;99.90
54272;DHT22;40184;53.362;5.216;2022-10-16T14:57:04;16.00;99.90
54272;DHT22;40184;53.362;5.216;2022-10-16T15:01:58;15.90;99.90
54272;DHT22;40184;53.362;5.216;2022-10-16T15:04:24;15.80;99.90
54272;DHT22;40184;53.362;5.216;2022-10-16T15:06:49;15.70;99.90
54272;DHT22;40184;53.362;5.216;2022-10-16T15:09:15;15.70;99.90
54272;DHT22;40184;53.362;5.216;2022-10-16T15:11:42;15.60;99.90
54272;DHT22;40184;53.362;5.216;2022-10-16T15:14:12;15.60;99.90
54272;DHT22;40184;53.362;5.216;2022-10-16T15:16:38;15.60;99.90
54272;DHT22;40184;53.362;5.216;2022-10-16T15:19:04;15.60;99.90
54272;DHT22;40184;53.362;5.216;2022-10-16T15:21:31;15.50;99.90
54272;DHT22;40184;53.362;5.216;2022-10-16T15:23:58;15.50;99.90
54272;DHT22;40184;53.362;5.216;2022-10-16T15:26:26;15.50;99.90
54272;DHT22;40184;53.362;5.216;2022-10-16T15:28:52;15.50;99.90
54272;DHT22;40184;53.362;5.216;2022-10-16T15:31:18;15.40;99.90
54272;DHT22;40184;53.362;5.216;2022-10-16T15:33:44;15.40;99.90
54272;DHT22;40184;53.362;5.216;2022-10-16T15:36:13;15.40;99.90
54272;DHT22;40184;53.362;5.216;2022-10-16T15:38:38;15.30;99.90
54272;DHT22;40184;53.362;5.216;2022-10-16T15:41:04;15.30;99.90
54272;DHT22;40184;53.362;5.216;2022-10-16T15:43:30;15.30;99.90
54272;DHT22;40184;53.362;5.216;2022-10-16T15:46:05;15.20;99.90
54272;DHT22;40184;53.362;5.216;2022-10-16T15:48:32;15.20;99.90
54272;DHT22;40184;53.362;5.216;2022-10-16T15:50:59;15.20;99.90
54272;DHT22;40184;53.362;5.216;2022-10-16T15:53:25;15.20;99.90
54272;DHT22;40184;53.362;5.216;2022-10-16T15:55:50;15.10;99.90
54272;DHT22;40184;53.362;5.216;2022-10-16T15:58:16;15.10;99.90
54272;DHT22;40184;53.362;5.216;2022-10-16T16:00:42;15.10;99.90
54272;DHT22;40184;53.362;5.216;2022-10-16T16:03:07;15.10;99.90
54272;DHT22;40184;53.362;5.216;2022-10-16T16:05:33;15.10;99.90
54272;DHT22;40184;53.362;5.216;2022-10-16T16:08:00;15.00;99.90
54272;DHT22;40184;53.362;5.216;2022-10-16T16:10:26;15.00;99.90
54272;DHT22;40184;53.362;5.216;2022-10-16T16:12:51;15.00;99.90
54272;DHT22;40184;53.362;5.216;2022-10-16T16:15:21;14.90;99.90
54272;DHT22;40184;53.362;5.216;2022-10-16T16:17:47;14.90;99.90
54272;DHT22;40184;53.362;5.216;2022-10-16T16:20:13;14.90;99.90
54272;DHT22;40184;53.362;5.216;2022-10-16T16:22:39;14.80;99.90
54272;DHT22;40184;53.362;5.216;2022-10-16T16:25:05;14.80;99.90
54272;DHT22;40184;53.362;5.216;2022-10-16T16:27:31;14.80;99.90
54272;DHT22;40184;53.362;5.216;2022-10-16T16:30:00;14.80;99.90
54272;DHT22;40184;53.362;5.216;2022-10-16T16:32:26;14.70;99.90
54272;DHT22;40184;53.362;5.216;2022-10-16T16:34:51;14.70;99.90
54272;DHT22;40184;53.362;5.216;2022-10-16T16:37:17;14.70;99.90
54272;DHT22;40184;53.362;5.216;2022-10-16T16:39:43;14.70;99.90
54272;DHT22;40184;53.362;5.216;2022-10-16T16:42:08;14.70;99.90
54272;DHT22;40184;53.362;5.216;2022-10-16T16:44:36;14.60;99.90
54272;DHT22;40184;53.362;5.216;2022-10-16T16:47:02;14.60;99.90
54272;DHT22;40184;53.362;5.216;2022-10-16T16:49:28;14.50;99.90
54272;DHT22;40184;53.362;5.216;2022-10-16T16:51:54;14.60;99.90
54272;DHT22;40184;53.362;5.216;2022-10-16T16:54:19;14.60;99.90
54272;DHT22;40184;53.362;5.216;2022-10-16T16:56:45;14.50;99.90
54272;DHT22;40184;53.362;5.216;2022-10-16T16:59:16;14.60;99.90
54272;DHT22;40184;53.362;5.216;2022-10-16T17:01:43;14.60;99.90
54272;DHT22;40184;53.362;5.216;2022-10-16T17:04:09;14.60;99.90
54272;DHT22;40184;53.362;5.216;2022-10-16T17:06:36;14.60;99.90
54272;DHT22;40184;53.362;5.216;2022-10-16T17:09:03;14.60;99.90
54272;DHT22;40184;53.362;5.216;2022-10-16T17:11:29;14.60;99.90
54272;DHT22;40184;53.362;5.216;2022-10-16T17:13:57;14.70;99.90
54272;DHT22;40184;53.362;5.216;2022-10-16T17:16:25;14.60;99.90
54272;DHT22;40184;53.362;5.216;2022-10-16T17:18:51;14.60;99.90
54272;DHT22;40184;53.362;5.216;2022-10-16T17:21:19;14.70;99.90
54272;DHT22;40184;53.362;5.216;2022-10-16T17:23:44;14.60;99.90
54272;DHT22;40184;53.362;5.216;2022-10-16T17:26:13;14.60;99.90
54272;DHT22;40184;53.362;5.216;2022-10-16T17:28:39;14.60;99.90
54272;DHT22;40184;53.362;5.216;2022-10-16T17:31:17;14.60;99.90
54272;DHT22;40184;53.362;5.216;2022-10-16T17:33:43;14.50;99.90
54272;DHT22;40184;53.362;5.216;2022-10-16T17:36:09;14.50;99.90
54272;DHT22;40184;53.362;5.216;2022-10-16T17:38:36;14.60;99.90